Time;durP1;ratioP1;P1;durP2;ratioP2;P2;SDS_P1;SDS_P2;PMS_P1;PMS_P2;Temp;Humidity;BMP_temperature;BMP_pressure;BME280_temperature;BME280_humidity;BME280_pressure;Samples;Min_cycle;Max_cycle;Signal;HPM_P1;HPM_P2
2021/03/04 00:00:22;;;;;;;103.53;48.83;;;6.00;91.20;;;;;;6186609;23;20013;-86
2021/03/04 00:02:56;;;;;;;106.05;50.03;;;6.00;91.20;;;;;;6187773;23;20001;-84
2021/03/04 00:05:32;;;;;;;110.57;50.22;;;5.90;91.20;;;;;;6187315;23;20457;-85
2021/03/04 00:08:00;;;;;;;113.20;50.83;;;5.90;91.20;;;;;;6160917;23;20001;-85
2021/03/04 00:10:28;;;;;;;114.25;52.45;;;5.90;91.20;;;;;;6185217;23;20411;-85
2021/03/04 00:13:00;;;;;;;119.15;51.97;;;5.90;91.40;;;;;;6185332;23;20005;-85
2021/03/04 00:15:41;;;;;;;129.32;53.33;;;5.90;91.30;;;;;;6184809;23;20016;-85
2021/03/04 00:18:12;;;;;;;119.07;50.58;;;5.90;91.40;;;;;;6162359;23;20005;-85
2021/03/04 00:20:38;;;;;;;;;;;5.90;91.30;;;;;;6184024;23;20005;-85
2021/03/04 00:23:04;;;;;;;123.18;53.35;;;5.90;91.30;;;;;;6184224;23;19904;-85
2021/03/04 00:25:54;;;;;;;124.88;53.45;;;5.80;91.40;;;;;;6186041;23;20001;-85
2021/03/04 00:28:31;;;;;;;123.97;54.35;;;5.80;91.40;;;;;;6184409;23;20109;-85
2021/03/04 00:31:48;;;;;;;119.97;52.30;;;5.80;91.40;;;;;;6162105;23;20009;-85
2021/03/04 00:34:16;;;;;;;109.88;50.13;;;5.80;91.50;;;;;;6179600;23;20009;-84
2021/03/04 00:36:51;;;;;;;111.20;48.85;;;5.90;91.50;;;;;;6184913;23;20085;-85
2021/03/04 00:39:19;;;;;;;116.07;51.05;;;5.90;91.40;;;;;;6183446;23;20005;-86
2021/03/04 00:44:42;;;;;;;121.05;52.03;;;5.90;91.40;;;;;;6173899;23;20013;-85
2021/03/04 00:47:08;;;;;;;117.03;49.67;;;5.90;91.40;;;;;;6183520;23;20000;-84
2021/03/04 00:49:34;;;;;;;116.90;49.97;;;5.90;91.40;;;;;;6182652;23;20012;-86
2021/03/04 00:52:02;;;;;;;116.05;50.70;;;5.80;91.30;;;;;;6183880;23;20001;-84
2021/03/04 00:55:07;;;;;;;122.78;53.80;;;5.80;91.40;;;;;;6183283;23;20012;-85
2021/03/04 00:57:36;;;;;;;104.68;47.72;;;5.80;91.40;;;;;;6201564;23;20103;-85
2021/03/04 01:00:08;;;;;;;111.53;49.10;;;5.90;91.40;;;;;;6187839;23;20103;-85
2021/03/04 01:02:37;;;;;;;;;;;5.90;91.40;;;;;;6215492;23;20004;-85
2021/03/04 01:05:06;;;;;;;111.80;49.13;;;5.90;91.40;;;;;;6188962;23;20306;-85
2021/03/04 01:07:32;;;;;;;113.53;49.28;;;5.90;91.40;;;;;;6188884;23;20005;-85
2021/03/04 01:10:01;;;;;;;111.35;48.05;;;5.90;91.40;;;;;;6187309;23;20000;-85
2021/03/04 01:12:33;;;;;;;122.53;51.80;;;5.90;91.40;;;;;;6163067;23;20016;-84
2021/03/04 01:14:59;;;;;;;112.50;51.42;;;5.90;91.30;;;;;;6214638;23;20004;-85
2021/03/04 01:17:41;;;;;;;;;;;;;;;;;;;;;
2021/03/04 01:20:32;;;;;;;111.07;48.15;;;5.80;91.40;;;;;;6214895;23;20375;-84
2021/03/04 01:23:00;;;;;;;102.53;45.92;;;5.80;91.40;;;;;;6174108;23;20403;-85
2021/03/04 01:25:29;;;;;;;97.72;44.30;;;5.80;91.50;;;;;;6194168;23;20001;-85
2021/03/04 01:27:57;;;;;;;90.20;41.92;;;5.80;91.50;;;;;;6196977;23;20003;-84
2021/03/04 01:30:32;;;;;;;86.72;40.60;;;5.80;91.50;;;;;;6195869;23;20764;-85
2021/03/04 01:33:10;;;;;;;77.82;37.63;;;5.80;91.50;;;;;;6197557;23;20078;-85
2021/03/04 01:35:36;;;;;;;80.75;37.70;;;5.70;91.40;;;;;;6224716;23;20076;-84
2021/03/04 01:38:04;;;;;;;88.57;40.45;;;5.80;91.50;;;;;;6222268;23;19997;-85
2021/03/04 01:40:41;;;;;;;92.18;43.38;;;5.80;91.50;;;;;;6193912;23;20096;-85
2021/03/04 01:43:33;;;;;;;88.68;40.28;;;5.80;91.50;;;;;;6217301;23;20001;-85
2021/03/04 01:45:59;;;;;;;95.55;43.08;;;5.80;91.50;;;;;;6216342;23;20008;-85
2021/03/04 01:48:33;;;;;;;93.45;44.55;;;5.70;91.50;;;;;;6164276;23;20039;-85
2021/03/04 01:51:09;;;;;;;91.75;42.03;;;5.60;91.60;;;;;;6163860;23;20030;-85
2021/03/04 01:53:45;;;;;;;83.82;39.08;;;5.60;91.60;;;;;;6188098;23;20085;-85
2021/03/04 01:56:19;;;;;;;86.35;40.13;;;5.60;91.70;;;;;;6188095;23;20005;-85
2021/03/04 01:58:46;;;;;;;84.72;39.10;;;5.60;91.70;;;;;;6158910;23;20100;-85
2021/03/04 02:01:21;;;;;;;83.13;39.35;;;5.60;91.70;;;;;;6158025;23;20009;-85
2021/03/04 02:03:47;;;;;;;84.57;39.05;;;5.70;91.70;;;;;;6158194;23;20020;-85
2021/03/04 02:06:19;;;;;;;84.07;39.70;;;5.70;91.60;;;;;;6158007;23;20079;-85
2021/03/04 02:09:07;;;;;;;85.57;39.88;;;5.70;91.60;;;;;;6153074;23;20071;-85
2021/03/04 02:11:48;;;;;;;75.68;37.05;;;5.70;91.60;;;;;;6155982;23;20005;-85
2021/03/04 02:14:48;;;;;;;78.47;38.53;;;5.60;91.60;;;;;;6136080;23;20096;-85
2021/03/04 02:17:35;;;;;;;72.32;35.47;;;5.70;91.60;;;;;;6182879;23;20009;-85
2021/03/04 02:20:13;;;;;;;67.70;35.17;;;5.70;91.60;;;;;;6157909;23;20011;-85
2021/03/04 02:22:47;;;;;;;65.53;33.60;;;5.70;91.50;;;;;;6145634;23;20493;-86
2021/03/04 02:25:53;;;;;;;69.10;36.05;;;5.70;91.50;;;;;;6157106;23;20501;-84
2021/03/04 02:28:22;;;;;;;61.13;32.60;;;5.70;91.50;;;;;;6156653;23;20335;-85
2021/03/04 02:30:49;;;;;;;64.95;32.95;;;5.70;91.50;;;;;;6157480;23;20439;-86
2021/03/04 02:33:20;;;;;;;64.53;33.33;;;5.70;91.40;;;;;;6184435;23;20005;-85
2021/03/04 02:35:51;;;;;;;61.83;32.58;;;5.70;91.30;;;;;;6157306;23;20450;-85
2021/03/04 02:38:22;;;;;;;60.35;31.98;;;5.70;91.30;;;;;;6157872;23;20012;-85
2021/03/04 02:41:01;;;;;;;69.88;34.92;;;5.60;91.40;;;;;;6157256;23;20036;-86
2021/03/04 02:43:41;;;;;;;74.03;35.10;;;5.60;91.30;;;;;;6157631;23;20020;-87
2021/03/04 02:46:10;;;;;;;65.60;33.15;;;5.60;91.30;;;;;;6184034;23;20423;-85
2021/03/04 02:48:49;;;;;;;72.90;37.20;;;5.50;91.30;;;;;;6157661;23;20005;-85
2021/03/04 02:51:15;;;;;;;72.03;35.80;;;5.50;91.30;;;;;;6158534;23;20032;-85
2021/03/04 02:53:47;;;;;;;76.68;36.28;;;5.50;91.30;;;;;;6157779;23;20032;-85
2021/03/04 02:56:21;;;;;;;71.28;34.38;;;5.50;91.30;;;;;;6134365;23;20028;-85
2021/03/04 02:58:51;;;;;;;70.13;34.85;;;5.50;91.40;;;;;;6182160;23;20339;-85
2021/03/04 03:01:21;;;;;;;74.75;34.88;;;5.50;91.40;;;;;;6183290;23;20016;-85
2021/03/04 03:03:51;;;;;;;77.75;36.17;;;5.50;91.40;;;;;;6181335;23;20009;-85
2021/03/04 03:06:22;;;;;;;73.13;35.28;;;5.50;91.40;;;;;;6183363;23;20097;-85
2021/03/04 03:08:51;;;;;;;78.47;36.25;;;5.50;91.50;;;;;;6183368;23;20376;-85
2021/03/04 03:11:20;;;;;;;78.95;36.53;;;5.50;91.50;;;;;;6176035;23;20017;-86
2021/03/04 03:14:07;;;;;;;80.90;36.85;;;5.50;91.60;;;;;;6180823;23;19997;-86
2021/03/04 03:16:35;;;;;;;77.15;35.53;;;5.50;91.60;;;;;;6182177;23;20431;-85
2021/03/04 03:19:01;;;;;;;77.28;35.17;;;5.50;91.60;;;;;;6181299;23;20004;-85
2021/03/04 03:21:36;;;;;;;78.00;34.53;;;5.60;91.60;;;;;;6182441;23;20009;-86
2021/03/04 03:24:09;;;;;;;70.30;35.38;;;5.60;91.60;;;;;;6170763;23;20067;-85
2021/03/04 03:26:40;;;;;;;81.20;36.45;;;5.50;91.50;;;;;;6157806;23;20009;-86
2021/03/04 03:29:09;;;;;;;73.97;34.03;;;5.50;91.60;;;;;;6156847;23;20020;-86
2021/03/04 03:31:44;;;;;;;72.75;35.05;;;5.50;91.60;;;;;;6183620;23;20335;-85
2021/03/04 03:34:18;;;;;;;73.38;35.00;;;5.50;91.60;;;;;;6180572;23;19997;-85
2021/03/04 03:36:56;;;;;;;77.97;36.03;;;5.50;91.60;;;;;;6182320;23;20391;-84
2021/03/04 03:39:34;;;;;;;76.03;35.28;;;5.50;91.60;;;;;;6181739;23;20063;-85
2021/03/04 03:42:21;;;;;;;76.35;33.97;;;5.40;91.60;;;;;;6182590;23;20442;-85
2021/03/04 03:44:48;;;;;;;72.60;34.50;;;5.40;91.60;;;;;;6182424;23;20063;-85
2021/03/04 03:47:23;;;;;;;70.53;33.50;;;5.40;91.60;;;;;;6184735;23;20064;-85
2021/03/04 03:49:55;;;;;;;72.10;33.90;;;5.40;91.60;;;;;;6183284;23;20005;-85
2021/03/04 03:52:33;;;;;;;76.65;35.03;;;5.30;91.60;;;;;;6185185;23;20005;-86
2021/03/04 03:55:03;;;;;;;72.95;33.83;;;5.30;91.60;;;;;;6182348;23;20072;-85
2021/03/04 03:58:03;;;;;;;73.43;34.33;;;5.30;91.60;;;;;;6184112;23;20017;-85
2021/03/04 04:00:41;;;;;;;75.20;35.63;;;5.30;91.70;;;;;;6184641;23;20033;-85
2021/03/04 04:03:10;;;;;;;77.25;34.38;;;5.20;91.70;;;;;;6184594;23;20063;-84
2021/03/04 04:05:50;;;;;;;74.90;34.47;;;5.20;91.80;;;;;;6183653;23;20009;-85
2021/03/04 04:08:29;;;;;;;64.47;31.20;;;5.20;91.90;;;;;;6185291;23;19997;-85
2021/03/04 04:11:04;;;;;;;64.72;31.67;;;5.20;91.90;;;;;;6184046;23;20005;-85
2021/03/04 04:13:33;;;;;;;70.65;32.20;;;5.20;91.80;;;;;;6160082;23;20001;-85
2021/03/04 04:15:59;;;;;;;68.15;32.70;;;5.20;91.80;;;;;;6185070;23;20040;-85
2021/03/04 04:18:34;;;;;;;63.78;32.30;;;5.20;91.80;;;;;;6184319;23;20005;-85
2021/03/04 04:21:08;;;;;;;66.28;32.30;;;5.30;91.80;;;;;;6183376;23;20430;-84
2021/03/04 04:23:38;;;;;;;67.05;31.75;;;5.20;91.80;;;;;;6184896;23;20035;-85
2021/03/04 04:26:13;;;;;;;64.60;32.22;;;5.20;91.80;;;;;;6183074;23;20008;-85
2021/03/04 04:28:41;;;;;;;60.67;29.85;;;5.20;91.80;;;;;;6182740;23;20335;-85
2021/03/04 04:31:17;;;;;;;63.40;30.40;;;5.20;91.80;;;;;;6159625;23;20008;-84
2021/03/04 04:34:17;;;;;;;66.80;31.38;;;5.20;91.70;;;;;;6185728;23;19998;-84
2021/03/04 04:36:49;;;;;;;65.40;30.92;;;5.20;91.80;;;;;;6183465;23;20014;-84
2021/03/04 04:39:20;;;;;;;64.78;31.42;;;5.20;91.70;;;;;;6158869;23;20009;-84
2021/03/04 04:42:07;;;;;;;62.58;29.77;;;5.20;91.70;;;;;;6183993;23;20013;-85
2021/03/04 04:44:35;;;;;;;64.25;30.02;;;5.20;91.80;;;;;;6131402;23;20332;-85
2021/03/04 04:47:09;;;;;;;59.67;29.52;;;5.20;91.70;;;;;;6183199;23;20088;-84
2021/03/04 04:49:47;;;;;;;67.38;29.48;;;5.20;91.70;;;;;;6160061;23;20096;-85
2021/03/04 04:52:21;;;;;;;63.17;30.23;;;5.20;91.70;;;;;;6184382;23;20024;-86
2021/03/04 04:54:58;;;;;;;65.75;32.55;;;5.20;91.70;;;;;;6183765;23;20312;-86
2021/03/04 04:57:27;;;;;;;70.40;32.25;;;5.20;91.70;;;;;;6188624;23;20419;-85
2021/03/04 05:00:20;;;;;;;67.55;32.25;;;5.20;91.70;;;;;;6188091;23;20423;-85
2021/03/04 05:02:56;;;;;;;67.50;31.58;;;5.20;91.70;;;;;;6187697;23;20015;-85
2021/03/04 05:05:25;;;;;;;65.18;30.15;;;5.20;91.60;;;;;;6188725;23;20001;-85
2021/03/04 12:04:59;;;;;;;15.10;8.95;;;5.10;90.50;;;;;;5998231;23;20012;-91
2021/03/04 13:55:41;;;;;;;;;;;;;;;;;;;;;
2021/03/04 14:01:58;;;;;;;;;;;;;;;;;;;;;
2021/03/04 14:05:54;;;;;;;;;;;;;;;;;;;;;
2021/03/04 14:15:11;;;;;;;5.43;3.92;;;6.00;83.70;;;;;;4978985;28;20046;-87
2021/03/04 14:18:01;;;;;;;;;;;;;;;;;;;;;
2021/03/04 14:32:18;;;;;;;;;;;;;;;;;;;;;
2021/03/04 14:35:46;;;;;;;;;;;;;;;;;;;;;
2021/03/04 15:42:13;;;;;;;8.15;2.40;;;6.40;84.90;;;;;;5914608;24;20020;-88
2021/03/04 15:44:58;;;;;;;6.63;3.05;;;6.30;84.90;;;;;;5921872;23;20048;-88
2021/03/04 15:48:17;;;;;;;;;;;;;;;;;;;;;
2021/03/04 15:51:23;;;;;;;;;;;;;;;;;;;;;
2021/03/04 16:01:55;;;;;;;9.90;3.83;;;6.30;85.80;;;;;;6010195;23;20072;-89
2021/03/04 16:23:20;;;;;;;;;;;;;;;;;;;;;
2021/03/04 16:30:20;;;;;;;;;;;;;;;;;;;;;
2021/03/04 16:44:51;;;;;;;8.50;4.30;;;6.10;87.80;;;;;;5871299;24;20018;-88
2021/03/04 17:54:54;;;;;;;11.50;2.55;;;5.80;82.70;;;;;;6079143;23;23287;-84
2021/03/04 18:00:46;;;;;;;10.52;3.33;;;5.80;82.80;;;;;;6096860;23;20015;-84
2021/03/04 18:04:09;;;;;;;;;;;;;;;;;;;;;
2021/03/04 18:07:10;;;;;;;16.05;2.97;;;5.80;82.20;;;;;;6099501;23;20085;-84
2021/03/04 18:09:44;;;;;;;11.57;2.50;;;5.80;81.80;;;;;;6100410;23;20089;-84
2021/03/04 18:12:38;;;;;;;8.70;2.35;;;5.70;81.50;;;;;;6077176;23;20014;-84
2021/03/04 18:15:21;;;;;;;13.68;3.17;;;5.70;81.60;;;;;;6100424;23;20029;-84
2021/03/04 18:18:22;;;;;;;;;;;;;;;;;;;;;
2021/03/04 18:21:11;;;;;;;;;;;;;;;;;;;;;
2021/03/04 18:23:53;;;;;;;;;;;;;;;;;;;;;
2021/03/04 18:30:09;;;;;;;16.00;3.30;;;5.60;80.80;;;;;;6084163;23;20010;-84
2021/03/04 18:32:47;;;;;;;15.00;3.15;;;5.60;80.40;;;;;;6097217;23;20014;-84
2021/03/04 18:35:34;;;;;;;11.18;3.28;;;5.50;80.40;;;;;;6073170;23;20038;-85
2021/03/04 18:38:50;;;;;;;14.38;3.28;;;5.50;80.50;;;;;;6070658;23;20010;-84
2021/03/04 18:41:59;;;;;;;12.60;2.90;;;5.50;80.80;;;;;;6092064;23;20015;-85
2021/03/04 18:44:28;;;;;;;17.73;3.58;;;5.50;80.60;;;;;;6055076;23;20014;-84
2021/03/04 18:47:06;;;;;;;16.65;3.28;;;5.50;80.60;;;;;;6091522;23;20305;-85
2021/03/04 18:49:58;;;;;;;13.02;3.38;;;5.40;80.60;;;;;;6091867;23;20083;-86
2021/03/04 18:52:39;;;;;;;;;;;;;;;;;;;;;
2021/03/04 18:55:41;;;;;;;;;;;;;;;;;;;;;
2021/03/04 18:58:48;;;;;;;15.18;2.90;;;5.30;80.70;;;;;;6094115;23;20386;-85
2021/03/04 19:01:33;;;;;;;15.15;3.28;;;5.30;80.90;;;;;;6093301;23;20340;-84
2021/03/04 19:04:05;;;;;;;14.60;3.30;;;5.30;81.00;;;;;;6067565;23;20053;-85
2021/03/04 19:07:00;;;;;;;14.40;3.35;;;5.30;81.20;;;;;;6092808;23;20002;-85
2021/03/04 19:10:01;;;;;;;;;;;;;;;;;;;;;
2021/03/04 19:13:19;;;;;;;;;;;;;;;;;;;;;
2021/03/04 19:16:03;;;;;;;16.58;3.33;;;5.30;81.60;;;;;;6084233;23;20065;-85
2021/03/04 19:19:25;;;;;;;12.50;2.70;;;5.20;81.70;;;;;;6091899;23;20333;-85
2021/03/04 19:26:22;;;;;;;13.77;3.65;;;5.20;81.80;;;;;;6063790;23;20019;-85
2021/03/04 19:28:39;;;;;;;;;;;;;;;;;;;;;
2021/03/04 19:31:44;;;;;;;;;;;;;;;;;;;;;
2021/03/04 19:34:32;;;;;;;11.20;2.92;;;5.20;81.60;;;;;;6084027;23;20085;-86
2021/03/04 19:40:05;;;;;;;11.02;3.03;;;5.10;81.50;;;;;;6083140;23;20081;-86
2021/03/04 19:42:57;;;;;;;12.52;2.15;;;5.10;81.40;;;;;;6097650;23;20029;-85
2021/03/04 19:45:25;;;;;;;;;;;5.10;81.50;;;;;;6071444;23;20014;-85
2021/03/04 19:47:55;;;;;;;11.25;2.85;;;5.10;81.60;;;;;;6068183;23;19961;-85
2021/03/04 19:50:47;;;;;;;7.68;2.53;;;5.10;81.70;;;;;;6046299;23;20034;-87
2021/03/04 19:56:33;;;;;;;12.90;2.58;;;5.10;81.70;;;;;;6066555;23;20417;-86
2021/03/04 19:59:03;;;;;;;13.05;2.78;;;5.10;81.80;;;;;;6066467;23;20013;-86
2021/03/04 20:01:55;;;;;;;14.55;3.05;;;5.10;81.60;;;;;;6041078;23;20035;-86
2021/03/04 20:04:26;;;;;;;14.25;2.97;;;5.10;81.20;;;;;;6081112;23;20019;-84
2021/03/04 20:07:15;;;;;;;12.02;2.92;;;5.00;80.90;;;;;;6040913;23;20010;-85
2021/03/04 20:10:03;;;;;;;9.18;2.80;;;5.00;80.90;;;;;;6023402;23;20014;-84
2021/03/04 20:12:42;;;;;;;16.40;3.97;;;5.00;80.20;;;;;;6066607;23;20094;-85
2021/03/04 20:15:33;;;;;;;12.82;3.20;;;5.00;79.20;;;;;;6088756;23;20730;-85
2021/03/04 20:18:29;;;;;;;;;;;;;;;;;;;;;
2021/03/04 20:21:11;;;;;;;11.38;2.47;;;5.00;78.80;;;;;;6065437;23;20093;-85
2021/03/04 20:23:52;;;;;;;;;;;;;;;;;;;;;
2021/03/04 20:27:01;;;;;;;;;;;;;;;;;;;;;
2021/03/04 20:32:46;;;;;;;12.30;3.30;;;5.00;77.60;;;;;;6055284;23;20007;-86
2021/03/04 20:35:20;;;;;;;12.52;2.97;;;5.00;76.30;;;;;;6064772;23;20021;-85
2021/03/04 20:38:05;;;;;;;10.45;2.88;;;4.90;74.70;;;;;;6064197;23;20006;-86
2021/03/04 20:40:45;;;;;;;13.30;2.90;;;4.90;74.90;;;;;;6064031;23;20011;-86
2021/03/04 20:43:21;;;;;;;11.90;2.88;;;5.00;73.50;;;;;;6063181;23;20074;-85
2021/03/04 20:46:05;;;;;;;10.95;2.28;;;4.90;73.10;;;;;;6087767;23;20039;-85
2021/03/04 20:48:39;;;;;;;11.45;3.80;;;4.90;73.10;;;;;;6063399;23;20015;-84
2021/03/04 20:51:19;;;;;;;14.27;3.75;;;4.90;72.90;;;;;;6089168;23;20492;-85
2021/03/04 20:57:21;;;;;;;12.68;2.58;;;4.90;72.00;;;;;;6054550;23;20011;-85
2021/03/04 20:59:50;;;;;;;10.25;2.47;;;4.90;71.90;;;;;;6088781;23;20011;-85
2021/03/04 21:02:41;;;;;;;;;;;;;;;;;;;;;
2021/03/04 21:05:10;;;;;;;;;;;4.80;72.40;;;;;;6065803;23;20816;-85
2021/03/04 21:07:41;;;;;;;9.02;2.47;;;4.90;72.50;;;;;;6039859;23;19910;-85
2021/03/04 21:10:27;;;;;;;10.45;3.15;;;4.80;72.70;;;;;;6063040;23;20826;-85
2021/03/04 21:13:14;;;;;;;12.43;2.50;;;4.80;73.00;;;;;;6087939;23;20068;-86
2021/03/04 21:18:36;;;;;;;12.30;2.50;;;4.90;72.70;;;;;;6060157;23;20003;-82
2021/03/04 21:21:11;;;;;;;10.88;2.33;;;4.90;72.90;;;;;;6041171;23;20433;-85
2021/03/04 21:24:11;;;;;;;6.47;2.17;;;4.90;73.20;;;;;;6063952;23;20073;-86
2021/03/04 21:26:49;;;;;;;9.23;2.65;;;4.90;73.30;;;;;;6040015;23;20102;-86
2021/03/04 21:29:26;;;;;;;9.57;2.90;;;4.90;73.10;;;;;;6039866;23;20003;-85
2021/03/04 21:31:53;;;;;;;10.45;2.67;;;4.90;73.10;;;;;;6072336;23;20007;-85
2021/03/04 21:35:04;;;;;;;;;;;;;;;;;;;;;
2021/03/04 21:37:35;;;;;;;12.50;3.10;;;4.90;72.50;;;;;;6063044;23;20098;-85
2021/03/04 21:40:34;;;;;;;11.02;2.95;;;4.90;72.30;;;;;;6062522;23;20090;-86
2021/03/04 21:46:41;;;;;;;10.98;2.67;;;4.80;72.60;;;;;;6055853;23;20034;-86
2021/03/04 21:52:52;;;;;;;;;;;4.80;72.40;;;;;;6061130;23;20330;-87
2021/03/04 21:55:32;;;;;;;12.70;3.25;;;4.80;72.30;;;;;;6007044;23;19925;-85
2021/03/04 21:58:36;;;;;;;13.25;2.40;;;4.70;72.10;;;;;;6065456;23;19999;-83
2021/03/04 22:01:05;;;;;;;10.57;2.90;;;4.70;72.30;;;;;;5991952;23;20016;-83
2021/03/04 22:03:53;;;;;;;8.07;2.75;;;4.70;72.30;;;;;;6063514;23;20457;-83
2021/03/04 22:06:32;;;;;;;12.02;2.65;;;4.70;72.60;;;;;;6065096;23;20091;-84
2021/03/04 22:09:09;;;;;;;10.32;2.63;;;4.70;73.00;;;;;;6088759;23;20019;-87
2021/03/04 22:11:43;;;;;;;12.90;3.03;;;4.70;73.50;;;;;;6065215;23;20007;-87
2021/03/04 22:14:19;;;;;;;10.35;2.30;;;4.60;74.30;;;;;;6041133;23;20596;-85
2021/03/04 22:17:50;;;;;;;;;;;;;;;;;;;;;
2021/03/04 22:20:14;;;;;;;8.77;2.30;;;4.60;75.20;;;;;;6060265;23;20007;-85
2021/03/04 22:23:36;;;;;;;14.38;2.75;;;4.60;75.60;;;;;;6087045;23;20007;-85
2021/03/04 22:26:10;;;;;;;11.07;2.13;;;4.60;75.90;;;;;;6055084;23;20066;-85
2021/03/04 22:28:42;;;;;;;13.52;2.60;;;4.60;76.10;;;;;;6043606;23;20425;-85
2021/03/04 22:31:13;;;;;;;13.15;2.85;;;4.50;76.40;;;;;;6067076;23;20448;-85
2021/03/04 22:33:48;;;;;;;;;;;4.50;76.60;;;;;;6066557;23;20003;-85
2021/03/04 22:36:31;;;;;;;;;;;;;;;;;;;;;
2021/03/04 22:39:17;;;;;;;9.27;2.40;;;4.40;77.00;;;;;;6066192;23;20079;-85
2021/03/04 22:41:51;;;;;;;11.15;2.53;;;4.40;77.30;;;;;;6066003;23;20018;-86
2021/03/04 22:44:33;;;;;;;14.27;2.35;;;4.50;77.60;;;;;;6091152;23;20015;-85
2021/03/04 22:47:07;;;;;;;10.05;2.80;;;4.40;78.00;;;;;;6043908;23;20010;-86
2021/03/04 22:49:43;;;;;;;13.30;2.75;;;4.40;78.30;;;;;;6091461;23;20050;-85
2021/03/04 22:52:20;;;;;;;7.15;2.38;;;4.40;78.50;;;;;;6089317;23;20066;-87
2021/03/04 22:55:05;;;;;;;;;;;;;;;;;;;;;
2021/03/04 22:57:34;;;;;;;9.35;2.38;;;4.40;79.30;;;;;;6045583;23;20090;-86
2021/03/04 23:00:12;;;;;;;10.57;2.80;;;4.40;79.60;;;;;;6065710;23;20003;-86
2021/03/04 23:02:59;;;;;;;;;;;;;;;;;;;;;
2021/03/04 23:05:37;;;;;;;8.18;2.47;;;4.40;79.90;;;;;;6068138;23;20117;-86
2021/03/04 23:08:11;;;;;;;11.50;3.65;;;4.40;80.10;;;;;;6064890;23;20007;-86
2021/03/04 23:10:43;;;;;;;12.43;2.70;;;4.50;80.30;;;;;;6090834;23;20007;-86
2021/03/04 23:13:14;;;;;;;10.88;2.95;;;4.40;80.50;;;;;;6040908;23;20007;-86
2021/03/04 23:16:24;;;;;;;;;;;;;;;;;;;;;
2021/03/04 23:19:25;;;;;;;;;;;;;;;;;;;;;
2021/03/04 23:22:25;;;;;;;10.40;3.22;;;4.50;81.00;;;;;;6067642;23;20086;-86
2021/03/04 23:25:33;;;;;;;10.02;3.10;;;4.40;81.20;;;;;;6008037;23;20031;-86
2021/03/04 23:28:09;;;;;;;12.18;4.07;;;4.40;81.50;;;;;;5962976;23;20032;-85
2021/03/04 23:30:42;;;;;;;11.27;4.43;;;4.40;81.70;;;;;;6065606;23;20043;-86
2021/03/04 23:33:31;;;;;;;7.80;3.70;;;4.40;81.90;;;;;;6088973;23;20007;-86
2021/03/04 23:36:43;;;;;;;11.05;3.80;;;4.40;82.10;;;;;;6068631;23;20479;-86
2021/03/04 23:39:19;;;;;;;;;;;;;;;;;;;;;
2021/03/04 23:41:53;;;;;;;10.55;4.60;;;4.40;82.60;;;;;;6072405;23;20416;-84
2021/03/04 23:44:27;;;;;;;11.15;5.28;;;4.40;82.70;;;;;;6069991;23;20013;-85
2021/03/04 23:47:01;;;;;;;16.98;5.72;;;4.40;82.80;;;;;;6045364;23;20003;-85
2021/03/04 23:52:46;;;;;;;10.40;4.50;;;4.50;83.00;;;;;;6072879;23;20010;-86
2021/03/04 23:55:37;;;;;;;10.85;5.03;;;4.50;83.20;;;;;;6069947;23;20023;-85
2021/03/04 23:58:22;;;;;;;14.30;6.90;;;4.50;83.20;;;;;;6101283;23;19998;-86
